createdAt,value
2022-11-30T00:01:47.605Z,98011.31
2022-11-30T00:04:16.173Z,98013.91
2022-11-30T00:06:44.733Z,98013.34
2022-11-30T00:09:13.298Z,98007.00
2022-11-30T00:11:41.870Z,98014.56
2022-11-30T00:14:10.546Z,98001.59
2022-11-30T00:16:40.555Z,98009.34
2022-11-30T00:19:09.133Z,98016.06
2022-11-30T00:21:37.705Z,98017.38
2022-11-30T00:24:07.499Z,98014.22
2022-11-30T00:26:36.357Z,98011.63
2022-11-30T00:29:05.759Z,98010.53
2022-11-30T00:31:34.310Z,98008.72
2022-11-30T00:34:04.262Z,97996.66
2022-11-30T00:36:32.755Z,98012.25
2022-11-30T00:39:01.517Z,98019.22
2022-11-30T00:41:30.165Z,98028.09
2022-11-30T00:43:58.671Z,98028.06
2022-11-30T00:46:27.415Z,98035.34
2022-11-30T00:48:56.011Z,98032.03
2022-11-30T00:51:25.890Z,98030.16
2022-11-30T00:53:54.415Z,98041.44
2022-11-30T00:56:24.787Z,98037.47
2022-11-30T00:58:53.788Z,98041.19
2022-11-30T01:01:22.517Z,98050.56
2022-11-30T01:03:51.224Z,98043.88
2022-11-30T01:06:19.776Z,98037.47
2022-11-30T01:08:49.807Z,98044.69
2022-11-30T01:11:22.714Z,98043.06
2022-11-30T01:13:51.682Z,98046.25
2022-11-30T01:16:24.041Z,98037.38
2022-11-30T01:18:53.147Z,98048.41
2022-11-30T01:21:24.761Z,98054.81
2022-11-30T01:23:55.491Z,98049.38
2022-11-30T01:26:25.227Z,98053.34
2022-11-30T01:28:55.133Z,98049.94
2022-11-30T01:31:25.426Z,98048.91
2022-11-30T01:33:56.534Z,98053.19
2022-11-30T01:36:27.494Z,98053.44
2022-11-30T01:38:59.217Z,98063.97
2022-11-30T01:41:30.458Z,98049.00
2022-11-30T01:44:50.191Z,98051.09
2022-11-30T01:47:23.645Z,98058.06
2022-11-30T01:49:59.073Z,98057.78
2022-11-30T01:52:35.585Z,98060.66
2022-11-30T01:55:17.266Z,98063.31
2022-11-30T01:57:53.233Z,98059.00
2022-11-30T02:00:22.826Z,98062.66
2022-11-30T02:03:00.872Z,98057.59
2022-11-30T02:05:30.369Z,98062.69
2022-11-30T02:07:59.624Z,98065.53
2022-11-30T02:10:33.551Z,98059.91
2022-11-30T02:13:37.343Z,98058.72
2022-11-30T02:16:25.447Z,98059.06
2022-11-30T02:19:05.129Z,98065.81
2022-11-30T02:21:43.848Z,98062.91
2022-11-30T02:24:45.233Z,98062.34
2022-11-30T02:27:41.711Z,98064.47
2022-11-30T02:30:16.401Z,98052.53
2022-11-30T02:32:51.513Z,98044.97
2022-11-30T02:35:25.362Z,98057.22
2022-11-30T02:37:55.846Z,98057.72
2022-11-30T02:40:24.671Z,98059.28
2022-11-30T02:42:56.751Z,98060.22
2022-11-30T02:45:34.416Z,98060.00
2022-11-30T02:48:10.410Z,98061.91
2022-11-30T02:50:46.660Z,98052.47
2022-11-30T02:53:15.473Z,98054.09
2022-11-30T02:55:44.281Z,98061.44
2022-11-30T02:58:13.849Z,98054.66
2022-11-30T03:00:43.938Z,98065.16
2022-11-30T03:03:12.553Z,98054.69
2022-11-30T03:05:41.358Z,98060.06
2022-11-30T03:08:09.986Z,98062.75
2022-11-30T03:10:38.747Z,98069.81
2022-11-30T03:13:07.327Z,98073.59
2022-11-30T03:15:36.958Z,98074.94
2022-11-30T03:18:07.872Z,98077.41
2022-11-30T03:20:36.476Z,98072.03
2022-11-30T03:23:05.016Z,98074.94
2022-11-30T03:25:33.909Z,98070.13
2022-11-30T03:28:03.017Z,98075.75
2022-11-30T03:30:31.687Z,98072.81
2022-11-30T03:33:00.204Z,98071.78
2022-11-30T03:35:30.078Z,98075.56
2022-11-30T03:37:58.753Z,98082.03
2022-11-30T03:40:27.312Z,98089.84
2022-11-30T03:42:55.945Z,98090.91
2022-11-30T03:45:24.527Z,98096.53
2022-11-30T03:47:53.021Z,98098.41
2022-11-30T03:50:21.620Z,98103.81
2022-11-30T03:52:51.715Z,98095.72
2022-11-30T03:55:20.267Z,98091.72
2022-11-30T03:57:48.889Z,98102.44
2022-11-30T04:00:19.288Z,98093.84
2022-11-30T04:02:47.901Z,98096.81
2022-11-30T04:05:16.549Z,98096.25
2022-11-30T04:07:45.252Z,98094.91
2022-11-30T04:10:15.418Z,98103.25
2022-11-30T04:12:43.979Z,98110.00
2022-11-30T04:15:12.839Z,98111.38
2022-11-30T04:17:41.750Z,98104.06
2022-11-30T04:20:11.121Z,98094.69
2022-11-30T04:22:40.246Z,98106.25
2022-11-30T04:25:10.072Z,98094.94
2022-11-30T04:27:40.110Z,98096.81
2022-11-30T04:30:10.617Z,98099.78
2022-11-30T04:32:39.147Z,98089.56
2022-11-30T04:35:08.918Z,98090.13
2022-11-30T04:37:37.465Z,98096.53
2022-11-30T04:40:08.904Z,98098.94
2022-11-30T04:42:38.963Z,98088.19
2022-11-30T04:45:09.209Z,98098.97
2022-11-30T04:47:38.184Z,98094.69
2022-11-30T04:50:08.992Z,98104.06
2022-11-30T04:52:38.001Z,98100.03
2022-11-30T04:55:07.791Z,98097.09
2022-11-30T04:57:36.306Z,98107.31
2022-11-30T05:00:08.640Z,98093.56
2022-11-30T05:02:37.143Z,98093.59
2022-11-30T05:05:06.565Z,98090.38
2022-11-30T05:07:35.946Z,98103.56
2022-11-30T05:10:06.626Z,98095.50
2022-11-30T05:12:35.600Z,98102.47
2022-11-30T05:15:04.455Z,98104.09
2022-11-30T05:17:34.349Z,98104.88
2022-11-30T05:20:02.993Z,98121.31
2022-11-30T05:22:31.664Z,98098.19
2022-11-30T05:25:00.378Z,98098.19
2022-11-30T05:27:29.047Z,98104.66
2022-11-30T05:29:57.822Z,98101.09
2022-11-30T05:32:26.327Z,98110.81
2022-11-30T05:34:56.514Z,98108.13
2022-11-30T05:37:25.149Z,98113.00
2022-11-30T05:39:53.799Z,98118.63
2022-11-30T05:42:22.904Z,98113.78
2022-11-30T05:44:51.530Z,98120.25
2022-11-30T05:47:20.065Z,98127.75
2022-11-30T05:49:48.684Z,98121.84
2022-11-30T05:52:18.621Z,98130.47
2022-11-30T05:54:47.425Z,98130.19
2022-11-30T05:57:16.159Z,98131.28
2022-11-30T05:59:44.717Z,98128.06
2022-11-30T06:02:13.303Z,98126.69
2022-11-30T06:04:42.099Z,98129.41
2022-11-30T06:07:11.944Z,98124.03
2022-11-30T06:09:42.101Z,98126.97
2022-11-30T06:12:10.766Z,98127.50
2022-11-30T06:14:39.428Z,98127.78
2022-11-30T06:17:07.928Z,98131.78
2022-11-30T06:19:36.852Z,98130.19
2022-11-30T06:22:05.499Z,98130.19
2022-11-30T06:24:34.253Z,98129.91
2022-11-30T06:27:04.278Z,98134.50
2022-11-30T06:29:32.928Z,98136.09
2022-11-30T06:32:01.560Z,98143.63
2022-11-30T06:34:33.156Z,98143.91
2022-11-30T06:37:01.698Z,98146.88
2022-11-30T06:39:57.902Z,98139.63
2022-11-30T06:42:20.883Z,98138.00
2022-11-30T06:44:49.774Z,98147.41
2022-11-30T06:47:18.507Z,98155.19
2022-11-30T06:49:47.482Z,98149.03
2022-11-30T06:52:16.316Z,98149.84
2022-11-30T06:54:45.350Z,98155.50
2022-11-30T06:57:14.159Z,98154.13
2022-11-30T06:59:44.226Z,98153.88
2022-11-30T07:02:17.740Z,98164.63
2022-11-30T07:04:47.631Z,98155.47
2022-11-30T07:07:16.803Z,98157.34
2022-11-30T07:09:45.290Z,98168.66
2022-11-30T07:12:13.975Z,98155.75
2022-11-30T07:14:43.958Z,98152.78
2022-11-30T07:17:12.616Z,98142.31
2022-11-30T07:19:41.183Z,98151.16
2022-11-30T07:22:09.723Z,98149.81
2022-11-30T07:24:55.888Z,98161.41
2022-11-30T07:27:24.663Z,98154.13
2022-11-30T07:29:54.617Z,98158.41
2022-11-30T07:32:23.264Z,98156.28
2022-11-30T07:34:51.979Z,98161.91
2022-11-30T07:37:20.695Z,98162.47
2022-11-30T07:39:49.353Z,98165.16
2022-11-30T07:42:18.217Z,98166.50
2022-11-30T07:44:46.993Z,98168.91
2022-11-30T07:47:17.642Z,98173.22
2022-11-30T07:49:46.196Z,98175.38
2022-11-30T07:52:14.825Z,98174.53
2022-11-30T07:54:43.295Z,98172.69
2022-11-30T07:57:12.440Z,98174.31
2022-11-30T07:59:41.122Z,98179.94
2022-11-30T08:02:11.738Z,98180.25
2022-11-30T08:04:41.705Z,98178.88
2022-11-30T08:07:10.286Z,98185.84
2022-11-30T08:09:38.866Z,98179.69
2022-11-30T08:12:08.530Z,98180.47
2022-11-30T08:14:56.458Z,98190.69
2022-11-30T08:17:25.880Z,98197.16
2022-11-30T08:19:55.897Z,98206.84
2022-11-30T08:22:24.463Z,98192.56
2022-11-30T08:24:55.274Z,98191.78
2022-11-30T08:27:23.988Z,98193.38
2022-11-30T08:29:52.941Z,98193.66
2022-11-30T08:32:21.561Z,98196.34
2022-11-30T08:34:50.318Z,98195.03
2022-11-30T08:37:20.409Z,98190.69
2022-11-30T08:39:49.104Z,98194.75
2022-11-30T08:42:17.585Z,98199.03
2022-11-30T08:44:46.184Z,98207.66
2022-11-30T08:47:14.769Z,98208.47
2022-11-30T08:49:44.664Z,98198.81
2022-11-30T08:52:17.852Z,98208.22
2022-11-30T08:54:49.330Z,98202.81
2022-11-30T08:57:20.547Z,98212.22
2022-11-30T08:59:49.553Z,98214.13
2022-11-30T09:02:20.148Z,98219.78
2022-11-30T09:04:51.244Z,98214.94
2022-11-30T09:07:20.119Z,98216.03
2022-11-30T09:09:50.396Z,98221.13
2022-11-30T09:12:19.145Z,98236.19
2022-11-30T09:14:55.863Z,98227.06
2022-11-30T09:17:26.382Z,98232.41
2022-11-30T09:19:55.936Z,98230.25
2022-11-30T09:22:24.902Z,98237.56
2022-11-30T09:24:55.266Z,98230.28
2022-11-30T09:27:24.864Z,98231.38
2022-11-30T09:29:53.428Z,98230.84
2022-11-30T09:32:21.944Z,98227.34
2022-11-30T09:34:51.038Z,98236.47
2022-11-30T09:37:19.896Z,98227.28
2022-11-30T09:39:48.566Z,98230.81
2022-11-30T09:42:41.565Z,98225.09
2022-11-30T09:45:20.240Z,98217.34
2022-11-30T09:48:26.507Z,98222.47
2022-11-30T09:51:01.393Z,98219.53
2022-11-30T09:53:41.248Z,98229.19
2022-11-30T09:56:26.395Z,98221.41
2022-11-30T09:59:03.395Z,98222.22
2022-11-30T10:01:33.139Z,98226.25
2022-11-30T10:04:02.670Z,98224.38
2022-11-30T10:06:44.193Z,98215.22
2022-11-30T10:09:34.210Z,98213.88
2022-11-30T10:12:13.615Z,98214.09
2022-11-30T10:15:07.897Z,98210.63
2022-11-30T10:17:53.741Z,98209.53
2022-11-30T10:20:56.114Z,98210.09
2022-11-30T10:23:46.518Z,98204.44
2022-11-30T10:26:20.435Z,98198.22
2022-11-30T10:28:53.454Z,98207.31
2022-11-30T10:31:34.069Z,98204.06
2022-11-30T10:34:20.320Z,98196.25
2022-11-30T10:36:57.642Z,98208.09
2022-11-30T10:39:33.841Z,98202.25
2022-11-30T10:42:11.216Z,98211.13
2022-11-30T10:44:45.193Z,98206.78
2022-11-30T10:47:22.573Z,98203.28
2022-11-30T10:49:53.783Z,98196.59
2022-11-30T10:52:28.022Z,98196.56
2022-11-30T10:55:04.277Z,98195.19
2022-11-30T10:57:36.000Z,98194.69
2022-11-30T11:00:07.701Z,98191.91
2022-11-30T11:02:45.171Z,98194.63
2022-11-30T11:05:21.779Z,98197.00
2022-11-30T11:07:59.807Z,98183.63
2022-11-30T11:10:37.519Z,98191.91
2022-11-30T11:13:06.586Z,98194.97
2022-11-30T11:15:36.446Z,98191.72
2022-11-30T11:18:28.155Z,98191.47
2022-11-30T11:21:07.569Z,98195.53
2022-11-30T11:23:39.672Z,98181.25
2022-11-30T11:26:18.379Z,98188.50
2022-11-30T11:28:51.226Z,98182.81
2022-11-30T11:31:37.543Z,98181.13
2022-11-30T11:34:25.640Z,98181.88
2022-11-30T11:37:08.015Z,98178.03
2022-11-30T11:39:36.621Z,98174.50
2022-11-30T11:42:06.463Z,98172.25
2022-11-30T11:44:35.611Z,98168.47
2022-11-30T11:47:08.185Z,98166.84
2022-11-30T11:49:40.205Z,98171.19
2022-11-30T11:52:18.916Z,98175.91
2022-11-30T11:54:54.561Z,98174.06
2022-11-30T11:57:34.676Z,98180.31
2022-11-30T12:00:15.626Z,98171.66
2022-11-30T12:02:59.182Z,98172.19
2022-11-30T12:05:37.447Z,98177.59
2022-11-30T12:08:14.598Z,98183.88
2022-11-30T12:10:53.188Z,98191.38
2022-11-30T12:13:28.284Z,98177.44
2022-11-30T12:16:15.419Z,98179.25
2022-11-30T12:18:53.588Z,98179.31
2022-11-30T12:21:44.060Z,98181.22
2022-11-30T12:24:49.087Z,98174.78
2022-11-30T12:27:37.217Z,98181.78
2022-11-30T12:30:16.872Z,98183.94
2022-11-30T12:33:11.546Z,98182.06
2022-11-30T12:35:59.509Z,98183.91
2022-11-30T12:38:45.676Z,98168.03
2022-11-30T12:41:38.603Z,98177.41
2022-11-30T12:44:29.004Z,98185.78
2022-11-30T12:47:17.826Z,98191.38
2022-11-30T12:50:11.552Z,98196.50
2022-11-30T12:52:54.502Z,98193.81
2022-11-30T12:55:38.832Z,98182.53
2022-11-30T12:58:22.858Z,98189.84
2022-11-30T13:01:12.826Z,98183.91
2022-11-30T13:03:58.825Z,98186.63
2022-11-30T13:06:34.938Z,98182.91
2022-11-30T13:09:13.190Z,98176.47
2022-11-30T13:11:50.305Z,98182.63
2022-11-30T13:14:24.253Z,98183.41
2022-11-30T13:17:08.284Z,98175.84
2022-11-30T13:19:55.719Z,98176.69
2022-11-30T13:22:38.966Z,98175.84
2022-11-30T13:25:44.949Z,98181.22
2022-11-30T13:28:31.073Z,98172.94
2022-11-30T13:31:08.971Z,98174.00
2022-11-30T13:33:49.385Z,98181.03
2022-11-30T13:36:40.856Z,98172.91
2022-11-30T13:39:22.863Z,98178.06
2022-11-30T13:42:34.512Z,98174.25
2022-11-30T13:45:36.407Z,98180.75
2022-11-30T13:48:34.248Z,98167.56
2022-11-30T13:51:02.889Z,98176.16
2022-11-30T13:53:34.317Z,98179.09
2022-11-30T13:56:23.493Z,98175.09
2022-11-30T13:59:36.127Z,98186.91
2022-11-30T14:03:18.404Z,98182.34
2022-11-30T14:05:47.661Z,98189.88
2022-11-30T14:08:36.932Z,98186.34
2022-11-30T14:11:43.291Z,98192.28
2022-11-30T14:14:56.189Z,98199.88
2022-11-30T14:17:29.149Z,98196.34
2022-11-30T14:20:09.448Z,98195.03
2022-11-30T14:22:41.679Z,98194.16
2022-11-30T14:25:15.476Z,98200.91
2022-11-30T14:27:45.545Z,98196.31
2022-11-30T14:30:19.757Z,98192.06
2022-11-30T14:32:56.716Z,98183.94
2022-11-30T14:35:33.182Z,98190.69
2022-11-30T14:38:03.591Z,98194.19
2022-11-30T14:40:33.468Z,98202.00
2022-11-30T14:43:04.091Z,98194.47
2022-11-30T14:45:35.368Z,98201.78
2022-11-30T14:48:09.100Z,98203.38
2022-11-30T14:50:47.497Z,98210.09
2022-11-30T14:53:33.548Z,98198.00
2022-11-30T14:56:14.584Z,98196.63
2022-11-30T14:58:52.519Z,98204.16
2022-11-30T15:01:25.956Z,98204.69
2022-11-30T15:03:58.653Z,98202.28
2022-11-30T15:06:33.857Z,98203.38
2022-11-30T15:09:03.652Z,98200.13
2022-11-30T15:11:32.642Z,98195.31
2022-11-30T15:14:11.554Z,98198.25
2022-11-30T15:16:48.453Z,98193.41
2022-11-30T15:19:23.998Z,98207.41
2022-11-30T15:21:55.836Z,98213.06
2022-11-30T15:24:25.910Z,98199.31
2022-11-30T15:27:03.118Z,98203.09
2022-11-30T15:29:40.409Z,98211.16
2022-11-30T15:32:18.158Z,98204.19
2022-11-30T15:34:56.061Z,98199.34
2022-11-30T15:37:32.523Z,98195.03
2022-11-30T15:40:06.378Z,98199.88
2022-11-30T15:42:40.743Z,98207.13
2022-11-30T15:45:16.953Z,98194.22
2022-11-30T15:47:45.808Z,98185.63
2022-11-30T15:50:42.853Z,98197.16
2022-11-30T15:53:35.690Z,98194.47
2022-11-30T15:56:08.739Z,98191.25
2022-11-30T15:58:46.392Z,98187.22
2022-11-30T16:01:19.315Z,98192.31
2022-11-30T16:04:06.980Z,98199.28
2022-11-30T16:06:48.019Z,98196.91
2022-11-30T16:09:24.962Z,98201.47
2022-11-30T16:11:57.767Z,98201.72
2022-11-30T16:14:26.363Z,98200.41
2022-11-30T16:16:55.977Z,98203.84
2022-11-30T16:19:24.713Z,98208.16
2022-11-30T16:21:53.488Z,98214.63
2022-11-30T16:24:24.523Z,98207.34
2022-11-30T16:26:53.401Z,98212.72
2022-11-30T16:29:22.180Z,98210.28
2022-11-30T16:31:50.858Z,98209.16
2022-11-30T16:34:19.504Z,98212.19
2022-11-30T16:36:48.186Z,98224.25
2022-11-30T16:39:16.817Z,98212.47
2022-11-30T16:41:46.775Z,98223.47
2022-11-30T16:44:16.195Z,98220.25
2022-11-30T16:46:44.886Z,98221.91
2022-11-30T16:49:13.542Z,98223.47
2022-11-30T16:51:42.719Z,98218.59
2022-11-30T16:54:14.248Z,98222.59
2022-11-30T16:56:43.271Z,98238.75
2022-11-30T16:59:17.035Z,98219.97
2022-11-30T17:01:52.816Z,98228.81
2022-11-30T17:04:26.955Z,98228.53
2022-11-30T17:07:02.034Z,98231.00
2022-11-30T17:09:34.472Z,98222.66
2022-11-30T17:12:03.384Z,98217.81
2022-11-30T17:14:33.483Z,98224.50
2022-11-30T17:17:02.389Z,98242.28
2022-11-30T17:19:31.106Z,98231.28
2022-11-30T17:21:59.701Z,98239.56
2022-11-30T17:24:28.315Z,98235.28
2022-11-30T17:26:56.931Z,98248.97
2022-11-30T17:29:25.977Z,98237.38
2022-11-30T17:31:55.942Z,98234.47
2022-11-30T17:34:24.651Z,98253.56
2022-11-30T17:36:56.650Z,98244.91
2022-11-30T17:39:25.547Z,98247.63
2022-11-30T17:41:54.240Z,98250.00
2022-11-30T17:44:22.823Z,98243.84
2022-11-30T17:46:51.442Z,98255.91
2022-11-30T17:49:21.678Z,98259.69
2022-11-30T17:51:50.536Z,98252.16
2022-11-30T17:54:19.337Z,98259.72
2022-11-30T17:56:48.019Z,98254.31
2022-11-30T17:59:16.577Z,98254.03
2022-11-30T18:01:45.262Z,98249.22
2022-11-30T18:04:14.136Z,98249.19
2022-11-30T18:06:44.497Z,98254.59
2022-11-30T18:09:13.249Z,98255.69
2022-11-30T18:11:42.084Z,98248.91
2022-11-30T18:14:10.847Z,98260.25
2022-11-30T18:16:39.919Z,98264.25
2022-11-30T18:19:12.375Z,98261.78
2022-11-30T18:21:47.007Z,98259.94
2022-11-30T18:24:22.545Z,98264.94
2022-11-30T18:26:59.210Z,98268.00
2022-11-30T18:29:28.905Z,98274.16
2022-11-30T18:31:57.736Z,98273.63
2022-11-30T18:34:26.627Z,98276.84
2022-11-30T18:36:56.782Z,98274.41
2022-11-30T18:39:25.592Z,98285.13
2022-11-30T18:41:57.135Z,98269.81
2022-11-30T18:44:28.375Z,98270.69
2022-11-30T18:46:59.290Z,98276.34
2022-11-30T18:49:27.913Z,98266.91
2022-11-30T18:51:57.810Z,98267.59
2022-11-30T18:54:26.904Z,98276.03
2022-11-30T18:56:58.824Z,98284.41
2022-11-30T18:59:27.571Z,98277.06
2022-11-30T19:01:57.350Z,98280.63
2022-11-30T19:04:29.234Z,98286.59
2022-11-30T19:07:00.353Z,98283.91
2022-11-30T19:09:28.976Z,98281.44
2022-11-30T19:11:58.193Z,98286.81
2022-11-30T19:14:37.877Z,98282.22
2022-11-30T19:17:19.438Z,98277.47
2022-11-30T19:19:48.103Z,98274.16
2022-11-30T19:22:18.099Z,98276.56
2022-11-30T19:24:47.042Z,98279.25
2022-11-30T19:27:21.543Z,98277.44
2022-11-30T19:29:50.670Z,98281.50
2022-11-30T19:32:19.660Z,98278.75
2022-11-30T19:34:49.240Z,98281.94
2022-11-30T19:37:19.439Z,98280.97
2022-11-30T19:39:48.350Z,98285.31
2022-11-30T19:42:17.155Z,98275.31
2022-11-30T19:44:46.160Z,98275.03
2022-11-30T19:47:18.634Z,98290.00
2022-11-30T19:49:47.305Z,98282.31
2022-11-30T19:52:18.327Z,98283.19
2022-11-30T19:54:48.857Z,98273.50
2022-11-30T19:57:19.635Z,98279.16
2022-11-30T19:59:48.449Z,98280.50
2022-11-30T20:02:17.179Z,98278.31
2022-11-30T20:04:45.866Z,98283.69
2022-11-30T20:07:14.976Z,98293.81
2022-11-30T20:09:43.754Z,98286.56
2022-11-30T20:12:13.925Z,98285.22
2022-11-30T20:14:42.557Z,98290.88
2022-11-30T20:17:11.632Z,98297.81
2022-11-30T20:19:40.340Z,98303.75
2022-11-30T20:22:09.569Z,98290.88
2022-11-30T20:24:38.565Z,98289.09
2022-11-30T20:27:07.355Z,98300.84
2022-11-30T20:29:37.668Z,98296.78
2022-11-30T20:32:07.374Z,98297.03
2022-11-30T20:34:45.632Z,98294.91
2022-11-30T20:37:15.850Z,98298.72
2022-11-30T20:39:46.537Z,98301.69
2022-11-30T20:42:15.455Z,98298.16
2022-11-30T20:44:45.723Z,98294.88
2022-11-30T20:47:14.553Z,98298.63
2022-11-30T20:49:43.211Z,98303.31
2022-11-30T20:52:11.924Z,98307.03
2022-11-30T20:54:40.684Z,98307.31
2022-11-30T20:57:09.468Z,98305.13
2022-11-30T20:59:39.401Z,98306.13
2022-11-30T21:02:11.823Z,98296.66
2022-11-30T21:04:40.562Z,98296.16
2022-11-30T21:07:09.218Z,98298.06
2022-11-30T21:09:37.791Z,98301.59
2022-11-30T21:12:07.348Z,98302.59
2022-11-30T21:14:36.099Z,98308.81
2022-11-30T21:17:05.293Z,98300.81
2022-11-30T21:19:35.257Z,98293.56
2022-11-30T21:22:05.921Z,98304.38
2022-11-30T21:24:35.939Z,98299.53
2022-11-30T21:27:04.566Z,98296.66
2022-11-30T21:29:33.112Z,98302.34
2022-11-30T21:32:01.642Z,98296.88
2022-11-30T21:34:30.165Z,98295.25
2022-11-30T21:37:00.372Z,98300.03
2022-11-30T21:39:29.165Z,98283.94
2022-11-30T21:41:57.829Z,98287.91
2022-11-30T21:44:26.516Z,98291.97
2022-11-30T21:46:55.404Z,98287.97
2022-11-30T21:49:24.371Z,98296.56
2022-11-30T21:51:54.055Z,98291.97
2022-11-30T21:54:24.070Z,98300.81
2022-11-30T21:56:53.382Z,98311.91
2022-11-30T21:59:22.022Z,98292.56
2022-11-30T22:01:50.880Z,98299.50
2022-11-30T22:04:19.516Z,98291.19
2022-11-30T22:06:48.187Z,98289.81
2022-11-30T22:09:18.799Z,98288.53
2022-11-30T22:11:48.777Z,98294.16
2022-11-30T22:14:18.289Z,98305.13
2022-11-30T22:16:46.867Z,98308.91
2022-11-30T22:19:17.078Z,98300.63
2022-11-30T22:21:50.095Z,98294.22
2022-11-30T22:24:19.405Z,98299.84
2022-11-30T22:26:50.062Z,98296.84
2022-11-30T22:29:22.240Z,98291.19
2022-11-30T22:31:54.233Z,98301.69
2022-11-30T22:34:23.278Z,98286.06
2022-11-30T22:36:51.802Z,98300.66
2022-11-30T22:39:22.636Z,98291.44
2022-11-30T22:41:55.960Z,98282.25
2022-11-30T22:44:26.491Z,98286.03
2022-11-30T22:46:55.247Z,98288.16
2022-11-30T22:49:24.129Z,98291.25
2022-11-30T22:51:53.065Z,98300.53
2022-11-30T22:54:21.826Z,98299.59
2022-11-30T22:56:50.362Z,98292.97
2022-11-30T22:59:20.294Z,98292.97
2022-11-30T23:01:51.542Z,98285.41
2022-11-30T23:04:23.390Z,98287.28
2022-11-30T23:06:52.693Z,98295.59
2022-11-30T23:09:30.084Z,98286.38
2022-11-30T23:11:58.739Z,98282.00
2022-11-30T23:14:28.837Z,98277.16
2022-11-30T23:16:57.474Z,98272.84
2022-11-30T23:19:25.958Z,98277.06
2022-11-30T23:21:54.430Z,98276.66
2022-11-30T23:24:23.883Z,98264.88
2022-11-30T23:26:52.463Z,98268.84
2022-11-30T23:29:21.147Z,98270.16
2022-11-30T23:31:51.097Z,98266.50
2022-11-30T23:34:22.354Z,98255.94
2022-11-30T23:36:52.080Z,98265.31
2022-11-30T23:39:21.669Z,98261.31
2022-11-30T23:41:50.476Z,98264.25
2022-11-30T23:44:19.524Z,98256.16
2022-11-30T23:46:48.151Z,98264.72
2022-11-30T23:49:18.200Z,98263.50
2022-11-30T23:51:46.908Z,98266.34
2022-11-30T23:54:15.404Z,98265.28
2022-11-30T23:56:44.337Z,98255.84
2022-11-30T23:59:12.864Z,98261.72
